createdAt,value
2019-03-21T00:00:37.778Z,95949.72
2019-03-21T00:03:08.875Z,95947.40
2019-03-21T00:05:39.916Z,95944.71
2019-03-21T00:08:12.185Z,95949.13
2019-03-21T00:11:20.846Z,95950.31
2019-03-21T00:13:53.312Z,95946.48
2019-03-21T00:16:24.565Z,95942.00
2019-03-21T00:18:55.424Z,95946.59
2019-03-21T00:21:26.254Z,95586.48
2019-03-21T00:23:57.229Z,95948.41
2019-03-21T00:26:28.230Z,95941.57
2019-03-21T00:28:59.168Z,95949.70
2019-03-21T00:31:30.374Z,95949.20
2019-03-21T00:34:01.556Z,95944.90
2019-03-21T00:36:32.448Z,95939.50
2019-03-21T00:39:04.044Z,95940.19
2019-03-21T00:41:35.186Z,95941.98
2019-03-21T00:44:17.632Z,95945.89
2019-03-21T00:46:40.210Z,95945.35
2019-03-21T00:49:11.230Z,95936.86
2019-03-21T00:51:42.132Z,95943.14
2019-03-21T00:54:13.987Z,95942.23
2019-03-21T00:56:45.098Z,95939.88
2019-03-21T00:59:15.960Z,95934.86
2019-03-21T01:01:46.913Z,95934.75
2019-03-21T01:04:19.685Z,95934.98
2019-03-21T01:06:50.631Z,95935.09
2019-03-21T01:09:22.030Z,95932.48
2019-03-21T01:11:52.862Z,95938.98
2019-03-21T01:14:29.843Z,95929.97
2019-03-21T01:16:56.847Z,95934.79
2019-03-21T01:19:27.866Z,95923.66
2019-03-21T01:21:58.688Z,95928.34
2019-03-21T01:24:29.805Z,95931.66
2019-03-21T01:27:00.725Z,95928.83
2019-03-21T01:29:31.618Z,95939.59
2019-03-21T01:32:02.704Z,95935.77
2019-03-21T01:34:33.794Z,95941.81
2019-03-21T01:37:04.869Z,95950.83
2019-03-21T01:39:36.058Z,95948.91
2019-03-21T01:42:06.960Z,95942.48
2019-03-21T01:44:41.332Z,95945.48
2019-03-21T01:47:11.951Z,95948.32
2019-03-21T01:49:42.819Z,95942.43
2019-03-21T01:52:13.894Z,95944.70
2019-03-21T01:54:44.794Z,95945.88
2019-03-21T01:57:15.734Z,95953.16
2019-03-21T01:59:47.110Z,95954.42
2019-03-21T02:02:18.204Z,95962.89
2019-03-21T02:04:49.079Z,95954.40
2019-03-21T02:07:20.109Z,95954.59
2019-03-21T02:09:51.331Z,95963.88
2019-03-21T02:12:22.331Z,95960.52
2019-03-21T02:14:53.402Z,95961.64
2019-03-21T02:17:24.339Z,95961.77
2019-03-21T02:19:55.419Z,95958.81
2019-03-21T02:22:26.312Z,95963.56
2019-03-21T02:24:57.170Z,95967.38
2019-03-21T02:27:28.433Z,95963.84
2019-03-21T02:29:59.642Z,95958.06
2019-03-21T02:32:30.466Z,95959.58
2019-03-21T02:35:01.532Z,95967.59
2019-03-21T02:37:32.761Z,95964.33
2019-03-21T02:40:03.624Z,95972.20
2019-03-21T02:42:34.534Z,95966.70
2019-03-21T02:45:08.804Z,95964.93
2019-03-21T02:47:39.055Z,95969.32
2019-03-21T02:50:14.726Z,95969.34
2019-03-21T02:52:45.585Z,95967.45
2019-03-21T02:55:16.503Z,95973.33
2019-03-21T02:57:47.402Z,95972.36
2019-03-21T03:00:20.456Z,95974.44
2019-03-21T03:02:52.903Z,95981.61
2019-03-21T03:05:25.737Z,95975.05
2019-03-21T03:07:56.668Z,95982.05
2019-03-21T03:10:30.354Z,95982.85
2019-03-21T03:13:01.628Z,95987.78
2019-03-21T03:15:33.247Z,95977.23
2019-03-21T03:18:04.817Z,95976.84
2019-03-21T03:20:35.763Z,95974.50
2019-03-21T03:23:06.671Z,95977.37
2019-03-21T03:25:37.785Z,95977.77
2019-03-21T03:28:11.958Z,95979.03
2019-03-21T03:30:44.287Z,95978.32
2019-03-21T03:33:16.799Z,95978.09
2019-03-21T03:35:47.705Z,95975.05
2019-03-21T03:38:18.530Z,95988.66
2019-03-21T03:40:52.496Z,95986.66
2019-03-21T03:43:23.740Z,95990.77
2019-03-21T03:45:54.703Z,95990.21
2019-03-21T03:48:25.836Z,95993.85
2019-03-21T03:50:56.762Z,95998.53
2019-03-21T03:53:28.236Z,95998.00
2019-03-21T03:55:59.098Z,95997.95
2019-03-21T03:58:30.259Z,95995.45
2019-03-21T04:01:01.306Z,95995.05
2019-03-21T04:03:32.523Z,95995.28
2019-03-21T04:06:03.390Z,95994.68
2019-03-21T04:08:34.790Z,95994.86
2019-03-21T04:11:05.883Z,95995.17
2019-03-21T04:13:36.832Z,96000.42
2019-03-21T04:16:07.868Z,96001.45
2019-03-21T04:18:39.025Z,96001.91
2019-03-21T04:21:09.888Z,96003.75
2019-03-21T04:23:41.084Z,96002.39
2019-03-21T04:26:15.455Z,96009.47
2019-03-21T04:28:46.585Z,96010.27
2019-03-21T04:31:17.905Z,96016.25
2019-03-21T04:33:49.072Z,96019.80
2019-03-21T04:36:20.079Z,96024.03
2019-03-21T04:38:51.241Z,96026.55
2019-03-21T04:41:22.505Z,96023.19
2019-03-21T04:43:53.504Z,96025.08
2019-03-21T04:46:24.801Z,96028.89
2019-03-21T04:48:55.583Z,96030.10
2019-03-21T04:51:26.442Z,96030.83
2019-03-21T04:53:57.542Z,96039.11
2019-03-21T04:56:29.332Z,96039.25
2019-03-21T04:59:00.172Z,96038.81
2019-03-21T05:01:31.282Z,96039.75
2019-03-21T05:04:02.250Z,96036.73
2019-03-21T05:06:33.319Z,96047.28
2019-03-21T05:09:06.093Z,96050.42
2019-03-21T05:11:37.477Z,96050.92
2019-03-21T05:14:08.295Z,96064.02
2019-03-21T05:16:39.418Z,96073.75
2019-03-21T05:19:10.629Z,96054.59
2019-03-21T05:21:41.480Z,96053.19
2019-03-21T05:24:12.362Z,96059.44
2019-03-21T05:26:43.386Z,96060.31
2019-03-21T05:29:14.457Z,96060.09
2019-03-21T05:31:46.466Z,96061.17
2019-03-21T05:34:17.274Z,96069.14
2019-03-21T05:36:50.447Z,96072.22
2019-03-21T05:39:21.326Z,96081.41
2019-03-21T05:41:52.146Z,96083.84
2019-03-21T05:44:36.811Z,96085.31
2019-03-21T05:47:07.962Z,96081.77
2019-03-21T05:49:38.837Z,96081.95
2019-03-21T05:52:10.952Z,96081.33
2019-03-21T05:54:41.864Z,96086.35
2019-03-21T05:57:12.724Z,96087.73
2019-03-21T05:59:43.645Z,96085.53
2019-03-21T06:02:14.532Z,96081.50
2019-03-21T06:04:45.599Z,96086.19
2019-03-21T06:07:37.144Z,96081.72
2019-03-21T06:10:10.502Z,96095.16
2019-03-21T06:12:43.252Z,96091.06
2019-03-21T06:15:16.087Z,96092.50
2019-03-21T06:17:53.586Z,96096.50
2019-03-21T06:20:35.989Z,96098.59
2019-03-21T06:23:59.094Z,96092.77
2019-03-21T06:27:14.102Z,96095.78
2019-03-21T06:29:37.934Z,96102.05
2019-03-21T06:32:08.888Z,96105.66
2019-03-21T06:34:39.778Z,96102.98
2019-03-21T06:37:11.024Z,96110.59
2019-03-21T06:39:41.920Z,96111.83
2019-03-21T06:42:12.771Z,96116.91
2019-03-21T06:44:43.888Z,96113.65
2019-03-21T06:47:14.993Z,96112.82
2019-03-21T06:49:46.645Z,96111.20
2019-03-21T06:52:17.781Z,96119.66
2019-03-21T06:54:48.868Z,96119.08
2019-03-21T06:57:19.761Z,96122.88
2019-03-21T06:59:50.775Z,96129.41
2019-03-21T07:02:21.929Z,96135.77
2019-03-21T07:04:52.901Z,96138.47
2019-03-21T07:07:24.032Z,96138.97
2019-03-21T07:09:55.053Z,96143.58
2019-03-21T07:12:27.359Z,96145.41
2019-03-21T07:14:58.486Z,96141.89
2019-03-21T07:17:29.473Z,96149.91
2019-03-21T07:20:00.757Z,96150.13
2019-03-21T07:22:31.963Z,96152.29
2019-03-21T07:25:02.933Z,96152.15
2019-03-21T07:27:34.014Z,96157.56
2019-03-21T07:30:06.198Z,96163.11
2019-03-21T07:32:37.064Z,96163.27
2019-03-21T07:35:08.576Z,96155.92
2019-03-21T07:37:39.443Z,96163.09
2019-03-21T07:40:11.601Z,96160.37
2019-03-21T07:42:42.824Z,96168.95
2019-03-21T07:45:14.190Z,96171.95
2019-03-21T07:47:45.287Z,96168.14
2019-03-21T07:50:16.719Z,96166.41
2019-03-21T07:52:47.679Z,96173.54
2019-03-21T07:55:18.555Z,96179.95
2019-03-21T07:57:49.901Z,96178.00
2019-03-21T08:00:20.939Z,96178.39
2019-03-21T08:02:52.107Z,96173.21
2019-03-21T08:05:23.311Z,96173.29
2019-03-21T08:07:54.229Z,96171.81
2019-03-21T08:10:25.152Z,96170.09
2019-03-21T08:12:56.035Z,96165.78
2019-03-21T08:15:27.099Z,96168.16
2019-03-21T08:17:58.435Z,96164.07
2019-03-21T08:20:29.379Z,96167.97
2019-03-21T08:23:00.251Z,96166.14
2019-03-21T08:25:31.514Z,96170.68
2019-03-21T08:28:02.506Z,96179.48
2019-03-21T08:30:35.700Z,96179.32
2019-03-21T08:33:07.188Z,96176.84
2019-03-21T08:35:38.432Z,96177.84
2019-03-21T08:38:09.465Z,96180.58
2019-03-21T08:40:42.598Z,96177.02
2019-03-21T08:43:13.151Z,96178.00
2019-03-21T08:45:44.172Z,96180.37
2019-03-21T08:48:15.209Z,96178.92
2019-03-21T08:50:46.102Z,96172.75
2019-03-21T08:53:17.082Z,96179.23
2019-03-21T08:55:48.211Z,96181.22
2019-03-21T08:58:19.139Z,96186.58
2019-03-21T09:00:50.433Z,96190.30
2019-03-21T09:03:21.502Z,96183.69
2019-03-21T09:05:52.419Z,96178.62
2019-03-21T09:08:23.417Z,96174.00
2019-03-21T09:10:54.604Z,96180.23
2019-03-21T09:13:25.459Z,96177.80
2019-03-21T09:15:56.359Z,96174.92
2019-03-21T09:18:27.587Z,96174.36
2019-03-21T09:20:58.507Z,96175.33
2019-03-21T09:23:29.497Z,96171.68
2019-03-21T09:26:00.786Z,96169.86
2019-03-21T09:28:31.914Z,96163.38
2019-03-21T09:31:02.789Z,96168.71
2019-03-21T09:33:34.016Z,96172.02
2019-03-21T09:36:05.113Z,96163.20
2019-03-21T09:38:36.024Z,96175.40
2019-03-21T09:41:07.244Z,96169.75
2019-03-21T09:43:38.595Z,96174.63
2019-03-21T09:46:09.632Z,96167.72
2019-03-21T09:48:40.599Z,96167.39
2019-03-21T09:51:11.438Z,96163.88
2019-03-21T09:53:42.427Z,96167.22
2019-03-21T09:56:13.459Z,96164.39
2019-03-21T09:58:44.494Z,96164.16
2019-03-21T10:01:15.479Z,96165.44
2019-03-21T10:03:47.016Z,96162.74
2019-03-21T10:06:18.079Z,96162.47
2019-03-21T10:08:49.249Z,96165.94
2019-03-21T10:11:20.507Z,96171.84
2019-03-21T10:13:52.520Z,96175.80
2019-03-21T10:16:23.575Z,96171.67
2019-03-21T10:18:54.705Z,96169.95
2019-03-21T10:21:25.941Z,96162.62
2019-03-21T10:23:57.140Z,96162.07
2019-03-21T10:26:27.960Z,96156.88
2019-03-21T10:28:59.020Z,96148.41
2019-03-21T10:31:30.168Z,96142.47
2019-03-21T10:34:01.024Z,96135.52
2019-03-21T10:36:31.987Z,96147.02
2019-03-21T10:39:04.112Z,96137.94
2019-03-21T10:41:34.936Z,96132.04
2019-03-21T10:44:06.046Z,96121.04
2019-03-21T10:46:37.131Z,96120.84
2019-03-21T10:49:08.295Z,96109.02
2019-03-21T10:51:39.573Z,96098.92
2019-03-21T10:54:10.523Z,96102.92
2019-03-21T10:56:41.355Z,96096.11
2019-03-21T10:59:12.325Z,96087.93
2019-03-21T11:01:43.143Z,96095.68
2019-03-21T11:04:14.038Z,96081.56
2019-03-21T11:06:45.186Z,96079.28
2019-03-21T11:09:16.272Z,96073.53
2019-03-21T11:11:47.095Z,96074.79
2019-03-21T11:14:18.086Z,96072.00
2019-03-21T11:16:49.342Z,96068.25
2019-03-21T11:19:20.356Z,96063.65
2019-03-21T11:21:51.599Z,96066.47
2019-03-21T11:24:22.435Z,96053.67
2019-03-21T11:26:53.741Z,96064.80
2019-03-21T11:29:24.755Z,96061.17
2019-03-21T11:31:55.636Z,96062.66
2019-03-21T11:34:26.795Z,96059.23
2019-03-21T11:36:58.062Z,96057.66
2019-03-21T11:39:28.991Z,96051.73
2019-03-21T11:42:00.263Z,96049.75
2019-03-21T11:44:31.405Z,96045.37
2019-03-21T11:47:02.488Z,96043.19
2019-03-21T11:49:34.620Z,96032.86
2019-03-21T11:52:17.550Z,96032.80
2019-03-21T11:54:38.454Z,96023.88
2019-03-21T11:57:09.575Z,96014.50
2019-03-21T11:59:51.122Z,96018.23
2019-03-21T12:02:13.579Z,96019.78
2019-03-21T12:04:44.557Z,96007.00
2019-03-21T12:07:15.463Z,96006.65
2019-03-21T12:09:46.562Z,96010.09
2019-03-21T12:12:17.603Z,96002.86
2019-03-21T12:14:48.427Z,96000.14
2019-03-21T12:17:19.379Z,96000.14
2019-03-21T12:19:50.565Z,96000.97
2019-03-21T12:22:30.037Z,96001.61
2019-03-21T12:24:54.090Z,95995.23
2019-03-21T12:27:25.256Z,95995.23
2019-03-21T12:29:56.546Z,95985.51
2019-03-21T12:32:27.853Z,95991.10
2019-03-21T12:34:58.792Z,96002.17
2019-03-21T12:37:29.783Z,95991.78
2019-03-21T12:40:00.798Z,95991.81
2019-03-21T12:42:31.689Z,95991.69
2019-03-21T12:45:02.616Z,95992.28
2019-03-21T12:47:34.978Z,95989.20
2019-03-21T12:50:07.735Z,95984.80
2019-03-21T12:52:41.572Z,95983.63
2019-03-21T12:55:11.582Z,95978.00
2019-03-21T12:57:42.675Z,95979.73
2019-03-21T13:00:13.877Z,95975.25
2019-03-21T13:02:45.133Z,95976.13
2019-03-21T13:05:22.613Z,95979.29
2019-03-21T13:07:54.077Z,95974.70
2019-03-21T13:10:25.211Z,95964.09
2019-03-21T13:12:56.293Z,95960.34
2019-03-21T13:15:30.176Z,95958.55
2019-03-21T13:18:00.729Z,95955.70
2019-03-21T13:20:31.934Z,95951.25
2019-03-21T13:23:03.074Z,95953.52
2019-03-21T13:25:34.237Z,95953.56
2019-03-21T13:28:05.787Z,95952.53
2019-03-21T13:30:37.285Z,95942.62
2019-03-21T13:33:08.574Z,95943.05
2019-03-21T13:35:39.415Z,95929.00
2019-03-21T13:38:10.304Z,95927.62
2019-03-21T13:40:41.571Z,95930.19
2019-03-21T13:43:12.564Z,95932.52
2019-03-21T13:45:43.491Z,95932.28
2019-03-21T13:48:14.574Z,95927.81
2019-03-21T13:50:45.429Z,95928.83
2019-03-21T13:53:19.061Z,95932.33
2019-03-21T13:55:49.267Z,95934.98
2019-03-21T13:58:20.421Z,95933.66
2019-03-21T14:00:51.313Z,95928.33
2019-03-21T14:03:25.417Z,95927.31
2019-03-21T14:05:55.507Z,95927.31
2019-03-21T14:08:26.656Z,95927.09
2019-03-21T14:10:57.650Z,95925.22
2019-03-21T14:13:28.519Z,95921.29
2019-03-21T14:15:59.643Z,95921.29
2019-03-21T14:18:30.898Z,95910.98
2019-03-21T14:21:01.708Z,95910.98
2019-03-21T14:23:42.681Z,95908.32
2019-03-21T14:26:05.613Z,95905.12
2019-03-21T14:28:36.594Z,95905.20
2019-03-21T14:31:07.569Z,95907.80
2019-03-21T14:33:39.122Z,95903.84
2019-03-21T14:36:09.949Z,95900.11
2019-03-21T14:38:41.142Z,95899.34
2019-03-21T14:41:12.061Z,95906.10
2019-03-21T14:43:43.159Z,95892.01
2019-03-21T14:46:14.232Z,95892.98
2019-03-21T14:48:45.139Z,95898.70
2019-03-21T14:51:16.214Z,95900.22
2019-03-21T14:53:47.171Z,95895.22
2019-03-21T14:56:17.971Z,95896.58
2019-03-21T14:58:48.860Z,95903.34
2019-03-21T15:01:20.123Z,95896.66
2019-03-21T15:03:51.283Z,95897.40
2019-03-21T15:06:22.280Z,95890.91
2019-03-21T15:08:53.299Z,95895.25
2019-03-21T15:11:24.452Z,95898.47
2019-03-21T15:13:56.034Z,95891.84
2019-03-21T15:16:26.965Z,95892.45
2019-03-21T15:18:58.306Z,95896.89
2019-03-21T15:21:29.387Z,95897.20
2019-03-21T15:24:00.673Z,95898.55
2019-03-21T15:26:31.596Z,95890.64
2019-03-21T15:29:02.809Z,95898.06
2019-03-21T15:31:33.949Z,95908.39
2019-03-21T15:34:04.848Z,95908.70
2019-03-21T15:36:36.097Z,95907.09
2019-03-21T15:39:09.480Z,95913.23
2019-03-21T15:41:40.531Z,95913.59
2019-03-21T15:44:11.465Z,95913.92
2019-03-21T15:46:42.286Z,95902.95
2019-03-21T15:49:13.611Z,95906.63
2019-03-21T15:51:44.656Z,95906.41
2019-03-21T15:54:15.726Z,95909.63
2019-03-21T15:56:47.052Z,95913.44
2019-03-21T15:59:19.179Z,95913.41
2019-03-21T16:01:50.125Z,95912.98
2019-03-21T16:04:21.372Z,95916.64
2019-03-21T16:06:52.292Z,95918.71
2019-03-21T16:09:23.559Z,95926.23
2019-03-21T16:11:54.585Z,95925.84
2019-03-21T16:14:26.752Z,95931.41
2019-03-21T16:16:57.692Z,95933.73
2019-03-21T16:19:28.732Z,95941.61
2019-03-21T16:21:59.775Z,95940.63
2019-03-21T16:24:30.927Z,95941.73
2019-03-21T16:27:02.215Z,95952.64
2019-03-21T16:29:33.137Z,95957.34
2019-03-21T16:32:04.333Z,95952.91
2019-03-21T16:34:35.363Z,95961.11
2019-03-21T16:37:06.214Z,95964.45
2019-03-21T16:39:37.062Z,95958.79
2019-03-21T16:42:08.028Z,95966.30
2019-03-21T16:44:38.874Z,95975.27
2019-03-21T16:47:10.191Z,95980.27
2019-03-21T16:49:41.222Z,95985.09
2019-03-21T16:52:12.268Z,95988.14
2019-03-21T16:54:43.322Z,95988.59
2019-03-21T16:57:14.290Z,95993.45
2019-03-21T16:59:45.231Z,95995.62
2019-03-21T17:02:16.397Z,96000.20
2019-03-21T17:04:47.243Z,96001.63
2019-03-21T17:07:18.061Z,96005.14
2019-03-21T17:09:49.215Z,96007.75
2019-03-21T17:12:20.283Z,96011.48
2019-03-21T17:14:51.116Z,96005.25
2019-03-21T17:17:22.355Z,96008.77
2019-03-21T17:19:53.397Z,96011.83
2019-03-21T17:22:24.666Z,96016.27
2019-03-21T17:24:55.585Z,96023.25
2019-03-21T17:27:26.468Z,96019.72
2019-03-21T17:29:57.841Z,96021.08
2019-03-21T17:32:28.699Z,96027.45
2019-03-21T17:34:59.779Z,96027.78
2019-03-21T17:37:30.707Z,96025.77
2019-03-21T17:40:01.810Z,96024.19
2019-03-21T17:42:32.795Z,96027.34
2019-03-21T17:45:04.401Z,96025.59
2019-03-21T17:47:35.328Z,96029.72
2019-03-21T17:50:07.081Z,96028.05
2019-03-21T17:52:38.199Z,96031.27
2019-03-21T17:55:09.549Z,96036.31
2019-03-21T17:57:40.373Z,96033.54
2019-03-21T18:00:16.182Z,96039.07
2019-03-21T18:02:47.414Z,96039.30
2019-03-21T18:05:18.235Z,96033.41
2019-03-21T18:07:49.087Z,96041.82
2019-03-21T18:10:30.741Z,96039.17
2019-03-21T18:13:02.504Z,96037.20
2019-03-21T18:15:33.433Z,96043.06
2019-03-21T18:18:04.752Z,96039.00
2019-03-21T18:20:36.318Z,96042.69
2019-03-21T18:23:07.292Z,96032.63
2019-03-21T18:25:38.213Z,96029.50
2019-03-21T18:28:09.102Z,96033.89
2019-03-21T18:30:40.311Z,96032.58
2019-03-21T18:33:11.154Z,96036.08
2019-03-21T18:35:42.007Z,96036.68
2019-03-21T18:38:13.310Z,96033.00
2019-03-21T18:40:44.415Z,96044.84
2019-03-21T18:43:15.275Z,96042.19
2019-03-21T18:45:46.560Z,96042.12
2019-03-21T18:48:17.799Z,96043.33
2019-03-21T18:50:48.586Z,96045.41
2019-03-21T18:53:19.590Z,96042.14
2019-03-21T18:55:50.666Z,96041.27
2019-03-21T18:58:21.859Z,96037.42
2019-03-21T19:00:52.991Z,96038.25
2019-03-21T19:03:24.887Z,96034.31
2019-03-21T19:05:55.845Z,96031.36
2019-03-21T19:08:27.067Z,96034.41
2019-03-21T19:10:58.228Z,96040.03
2019-03-21T19:13:29.354Z,96035.89
2019-03-21T19:16:00.600Z,96039.03
2019-03-21T19:18:31.425Z,96035.44
2019-03-21T19:21:02.335Z,96039.27
2019-03-21T19:23:33.642Z,96038.00
2019-03-21T19:26:04.784Z,96034.01
2019-03-21T19:28:35.914Z,96030.72
2019-03-21T19:31:06.889Z,96032.97
2019-03-21T19:33:38.093Z,96035.44
2019-03-21T19:36:09.051Z,96035.44
2019-03-21T19:38:39.851Z,96033.44
2019-03-21T19:41:10.926Z,96032.03
2019-03-21T19:43:42.022Z,96035.44
2019-03-21T19:46:12.865Z,96038.31
2019-03-21T19:48:50.117Z,96036.74
2019-03-21T19:51:16.615Z,96045.67
2019-03-21T19:53:47.626Z,96041.36
2019-03-21T19:56:18.713Z,96040.19
2019-03-21T19:58:49.950Z,96040.14
2019-03-21T20:01:21.026Z,96037.63
2019-03-21T20:03:52.349Z,96034.44
2019-03-21T20:06:23.351Z,96036.84
2019-03-21T20:08:56.758Z,96038.92
2019-03-21T20:11:27.142Z,96040.95
2019-03-21T20:13:58.199Z,96038.53
2019-03-21T20:16:29.298Z,96046.97
2019-03-21T20:19:00.601Z,96052.34
2019-03-21T20:21:32.066Z,96057.88
2019-03-21T20:24:03.068Z,96061.17
2019-03-21T20:26:34.409Z,96057.34
2019-03-21T20:29:05.939Z,96060.01
2019-03-21T20:31:37.038Z,96062.70
2019-03-21T20:34:07.964Z,96064.44
2019-03-21T20:36:38.810Z,96065.78
2019-03-21T20:39:11.543Z,96062.75
2019-03-21T20:41:42.918Z,96065.05
2019-03-21T20:44:15.328Z,96069.27
2019-03-21T20:46:46.697Z,96060.37
2019-03-21T20:49:17.863Z,96058.13
2019-03-21T20:51:48.817Z,96060.97
2019-03-21T20:54:19.936Z,96057.09
2019-03-21T20:56:52.075Z,96064.42
2019-03-21T20:59:22.979Z,96056.36
2019-03-21T21:02:02.537Z,96063.10
2019-03-21T21:04:26.776Z,96056.84
2019-03-21T21:06:57.698Z,96057.83
2019-03-21T21:09:29.079Z,96061.18
2019-03-21T21:11:59.995Z,96054.92
2019-03-21T21:14:31.083Z,96053.34
2019-03-21T21:17:02.238Z,96060.64
2019-03-21T21:19:33.107Z,96058.58
2019-03-21T21:22:04.004Z,96074.86
2019-03-21T21:24:35.094Z,96059.76
2019-03-21T21:27:06.197Z,96064.14
2019-03-21T21:29:37.217Z,96060.89
2019-03-21T21:32:08.215Z,96064.95
2019-03-21T21:34:39.320Z,96069.64
2019-03-21T21:37:10.474Z,96071.66
2019-03-21T21:39:41.392Z,96070.47
2019-03-21T21:42:12.699Z,96068.80
2019-03-21T21:44:43.802Z,96065.59
2019-03-21T21:47:14.754Z,96067.67
2019-03-21T21:49:45.654Z,96068.73
2019-03-21T21:52:17.064Z,96064.88
2019-03-21T21:54:49.309Z,96072.80
2019-03-21T21:57:21.302Z,96071.53
2019-03-21T21:59:53.094Z,96070.11
2019-03-21T22:02:24.058Z,96074.47
2019-03-21T22:04:54.929Z,96071.50
2019-03-21T22:07:26.147Z,96071.98
2019-03-21T22:09:57.228Z,96068.69
2019-03-21T22:12:28.054Z,96061.30
2019-03-21T22:14:59.360Z,96065.03
2019-03-21T22:17:30.523Z,96065.09
2019-03-21T22:20:01.367Z,96065.46
2019-03-21T22:22:32.449Z,96067.84
2019-03-21T22:25:03.691Z,96059.91
2019-03-21T22:27:34.754Z,96062.80
2019-03-21T22:30:06.822Z,96063.34
2019-03-21T22:32:37.735Z,96060.66
2019-03-21T22:35:09.077Z,96059.09
2019-03-21T22:37:39.889Z,96054.65
2019-03-21T22:40:11.048Z,96062.79
2019-03-21T22:42:42.122Z,96066.77
2019-03-21T22:45:14.146Z,96059.48
2019-03-21T22:47:45.166Z,96059.28
2019-03-21T22:50:17.069Z,96060.78
2019-03-21T22:52:48.331Z,96056.77
2019-03-21T22:55:19.170Z,96059.80
2019-03-21T22:57:50.012Z,96054.95
2019-03-21T23:00:22.418Z,96059.55
2019-03-21T23:02:54.910Z,96057.25
2019-03-21T23:05:25.870Z,96061.39
2019-03-21T23:07:57.107Z,96058.70
2019-03-21T23:10:28.495Z,96059.23
2019-03-21T23:12:59.471Z,96060.03
2019-03-21T23:15:30.536Z,96061.72
2019-03-21T23:18:01.354Z,96062.69
2019-03-21T23:20:32.701Z,96062.40
2019-03-21T23:23:03.940Z,96065.63
2019-03-21T23:25:34.867Z,96065.34
2019-03-21T23:28:06.338Z,96066.77
2019-03-21T23:30:37.606Z,96067.13
2019-03-21T23:33:08.486Z,96069.09
2019-03-21T23:35:39.425Z,96068.25
2019-03-21T23:38:10.519Z,96068.73
2019-03-21T23:40:41.722Z,96065.12
2019-03-21T23:43:13.793Z,96070.35
2019-03-21T23:45:45.071Z,96068.86
2019-03-21T23:48:16.232Z,96063.72
2019-03-21T23:50:47.661Z,96066.50
2019-03-21T23:53:18.596Z,96064.56
2019-03-21T23:55:49.704Z,96059.23
2019-03-21T23:58:20.838Z,96057.28
